Time;durP1;ratioP1;P1;durP2;ratioP2;P2;SDS_P1;SDS_P2;PMS_P1;PMS_P2;Temp;Humidity;BMP_temperature;BMP_pressure;BME280_temperature;BME280_humidity;BME280_pressure;Samples;Min_cycle;Max_cycle;Signal;HPM_P1;HPM_P2
2021/01/30 00:01:04;;;;;;;84.78;70.07;;;7.50;99.90;;;;;;5078412;28;20021;-76
2021/01/30 00:03:30;;;;;;;79.75;67.18;;;7.50;99.90;;;;;;5082335;28;20101;-76
2021/01/30 00:05:56;;;;;;;81.20;71.20;;;7.50;99.90;;;;;;5080155;28;20108;-76
2021/01/30 00:08:22;;;;;;;84.70;67.93;;;7.50;99.90;;;;;;5084935;28;20062;-76
2021/01/30 00:10:48;;;;;;;82.53;70.13;;;7.60;99.90;;;;;;5075501;28;20028;-76
2021/01/30 00:13:14;;;;;;;91.32;69.97;;;7.50;99.90;;;;;;5083460;28;20028;-76
2021/01/30 00:15:40;;;;;;;81.18;69.68;;;7.30;99.90;;;;;;5077084;28;20097;-76
2021/01/30 00:18:07;;;;;;;87.97;72.32;;;7.30;99.90;;;;;;5082203;28;20037;-76
2021/01/30 00:20:35;;;;;;;85.88;70.93;;;7.20;99.90;;;;;;5084401;28;20028;-76
2021/01/30 00:23:04;;;;;;;91.60;72.25;;;7.10;99.90;;;;;;5081961;28;20036;-76
2021/01/30 00:25:32;;;;;;;87.90;74.13;;;7.10;99.90;;;;;;5084314;28;20080;-76
2021/01/30 00:27:58;;;;;;;88.22;70.95;;;7.10;99.90;;;;;;5082086;28;20051;-76
2021/01/30 00:30:27;;;;;;;97.28;72.13;;;7.10;99.90;;;;;;5085348;28;20020;-76
2021/01/30 00:32:54;;;;;;;85.13;69.90;;;7.10;99.90;;;;;;5084768;28;20471;-76
2021/01/30 00:35:23;;;;;;;89.22;70.80;;;7.20;99.90;;;;;;5074784;28;20029;-76
2021/01/30 00:37:49;;;;;;;80.45;67.35;;;7.40;99.90;;;;;;5086077;28;20048;-76
2021/01/30 00:40:17;;;;;;;84.65;70.13;;;7.40;99.90;;;;;;5082454;28;20451;-76
2021/01/30 00:42:42;;;;;;;84.97;71.22;;;7.40;99.90;;;;;;5086161;28;20021;-76
2021/01/30 00:45:11;;;;;;;80.55;69.38;;;7.40;99.90;;;;;;5075416;28;20497;-76
2021/01/30 00:47:37;;;;;;;86.18;69.40;;;7.40;99.90;;;;;;5080481;28;20043;-76
2021/01/30 00:50:04;;;;;;;87.10;67.40;;;7.40;99.90;;;;;;5084721;28;20016;-76
2021/01/30 00:52:32;;;;;;;82.32;66.88;;;7.40;99.90;;;;;;5084321;28;20037;-76
2021/01/30 00:54:58;;;;;;;78.70;67.47;;;7.50;99.90;;;;;;5084200;28;20033;-76
2021/01/30 00:57:24;;;;;;;86.30;67.85;;;7.70;99.90;;;;;;5084211;28;20025;-76
2021/01/30 00:59:50;;;;;;;83.07;67.00;;;7.50;99.90;;;;;;5068192;28;20044;-76
2021/01/30 01:02:16;;;;;;;75.13;66.13;;;7.70;99.90;;;;;;5075494;28;20051;-76
2021/01/30 01:04:44;;;;;;;84.78;68.10;;;7.60;99.90;;;;;;5086215;28;20470;-76
2021/01/30 01:07:09;;;;;;;77.63;68.15;;;7.50;99.90;;;;;;5085385;28;20039;-76
2021/01/30 01:09:35;;;;;;;82.18;67.10;;;7.50;99.90;;;;;;5083565;28;20040;-75
2021/01/30 01:12:02;;;;;;;76.60;65.00;;;7.50;99.90;;;;;;5082064;28;20033;-76
2021/01/30 01:14:28;;;;;;;80.15;66.30;;;7.50;99.90;;;;;;5080476;28;20033;-76
2021/01/30 01:16:54;;;;;;;74.13;65.45;;;7.50;99.90;;;;;;5075104;28;20060;-76
2021/01/30 01:19:20;;;;;;;78.75;64.70;;;7.60;99.90;;;;;;5077138;28;20491;-76
2021/01/30 01:21:51;;;;;;;78.05;66.38;;;7.50;99.90;;;;;;5079605;28;20058;-76
2021/01/30 01:24:18;;;;;;;81.72;69.20;;;7.50;99.90;;;;;;5075817;28;20032;-76
2021/01/30 01:26:49;;;;;;;78.60;65.50;;;7.50;99.90;;;;;;5074198;28;20035;-76
2021/01/30 01:29:18;;;;;;;79.90;65.80;;;7.50;99.90;;;;;;5073726;28;20028;-76
2021/01/30 01:31:49;;;;;;;74.85;62.53;;;7.50;99.90;;;;;;5073074;28;20047;-76
2021/01/30 01:34:15;;;;;;;76.47;64.32;;;7.50;99.90;;;;;;5072779;28;20029;-76
2021/01/30 01:36:41;;;;;;;79.30;65.05;;;7.50;99.90;;;;;;5067009;28;20036;-76
2021/01/30 01:39:07;;;;;;;80.00;64.90;;;7.50;99.90;;;;;;5072314;28;20498;-76
2021/01/30 01:41:33;;;;;;;81.63;65.93;;;7.60;99.90;;;;;;5063242;28;20048;-76
2021/01/30 01:43:59;;;;;;;76.25;65.20;;;7.60;99.90;;;;;;5066928;28;20052;-76
2021/01/30 01:46:35;;;;;;;88.45;66.55;;;7.60;99.90;;;;;;5064338;28;20405;-76
2021/01/30 01:49:03;;;;;;;78.70;66.70;;;7.40;99.90;;;;;;5068574;28;20024;-76
2021/01/30 01:51:57;;;;;;;76.93;61.05;;;7.40;99.90;;;;;;5060147;28;20054;-76
2021/01/30 01:54:26;;;;;;;72.03;62.40;;;7.50;99.90;;;;;;5069134;28;20032;-76
2021/01/30 01:57:05;;;;;;;81.35;63.95;;;7.50;99.90;;;;;;5063505;28;20112;-76
2021/01/30 01:59:41;;;;;;;88.60;61.97;;;7.50;99.90;;;;;;5064977;28;20017;-76
2021/01/30 02:02:08;;;;;;;90.65;64.38;;;7.50;99.90;;;;;;5066314;28;20604;-76
2021/01/30 02:04:34;;;;;;;88.97;60.55;;;7.50;99.90;;;;;;5066760;28;20051;-76
2021/01/30 02:07:00;;;;;;;90.55;63.25;;;7.50;99.90;;;;;;5067450;28;20041;-76
2021/01/30 02:09:27;;;;;;;88.93;60.67;;;7.50;99.90;;;;;;5064453;28;20021;-76
2021/01/30 02:12:01;;;;;;;88.20;64.28;;;7.40;99.90;;;;;;5064550;28;20020;-76
2021/01/30 02:14:31;;;;;;;82.22;60.85;;;7.40;99.90;;;;;;5069997;28;20421;-76
2021/01/30 02:20:29;;;;;;;88.25;61.15;;;7.40;99.90;;;;;;5064781;28;20039;-76
2021/01/30 02:23:23;;;;;;;94.85;63.15;;;7.50;99.90;;;;;;5064776;28;20038;-76
2021/01/30 02:26:08;;;;;;;82.32;62.05;;;7.50;99.90;;;;;;5070568;28;20024;-76
2021/01/30 02:29:10;;;;;;;85.60;65.13;;;7.50;99.90;;;;;;5063353;28;20027;-76
2021/01/30 02:32:04;;;;;;;80.82;62.17;;;7.50;99.90;;;;;;5064370;28;20033;-76
2021/01/30 02:34:50;;;;;;;94.22;74.32;;;7.50;99.90;;;;;;5056306;28;20118;-76
2021/01/30 02:37:30;;;;;;;84.20;65.20;;;7.50;99.90;;;;;;5067094;28;20025;-76
2021/01/30 02:40:06;;;;;;;79.50;61.70;;;7.50;99.90;;;;;;5070001;28;20028;-76
2021/01/30 02:42:42;;;;;;;79.75;62.97;;;7.50;99.90;;;;;;5063782;28;20106;-76
2021/01/30 02:45:20;;;;;;;90.22;64.35;;;7.40;99.90;;;;;;5066152;28;20102;-76
2021/01/30 02:47:53;;;;;;;77.25;60.00;;;7.50;99.90;;;;;;5064430;28;20032;-76
2021/01/30 02:50:26;;;;;;;83.93;63.97;;;7.50;99.90;;;;;;5068186;28;20100;-76
2021/01/30 02:52:56;;;;;;;84.88;65.20;;;7.60;99.90;;;;;;5059982;28;20032;-76
2021/01/30 02:55:25;;;;;;;83.95;63.42;;;7.80;99.90;;;;;;5062879;28;20035;-76
2021/01/30 02:57:53;;;;;;;86.25;63.78;;;7.80;99.90;;;;;;5063268;28;20119;-76
2021/01/30 03:00:23;;;;;;;88.57;66.15;;;7.80;99.90;;;;;;5060303;28;20086;-76
2021/01/30 03:02:49;;;;;;;82.85;62.92;;;7.60;99.90;;;;;;5064093;28;20043;-75
2021/01/30 03:05:16;;;;;;;85.40;64.05;;;7.60;99.90;;;;;;5064773;28;20042;-76
2021/01/30 03:07:52;;;;;;;92.80;67.32;;;7.60;99.90;;;;;;5062446;28;20029;-76
2021/01/30 03:10:36;;;;;;;92.35;66.10;;;7.50;99.90;;;;;;5063622;28;20017;-76
2021/01/30 03:13:20;;;;;;;78.18;61.95;;;7.40;99.90;;;;;;5070476;28;20083;-76
2021/01/30 03:16:12;;;;;;;83.55;63.80;;;7.40;99.90;;;;;;5072105;28;20033;-76
2021/01/30 03:18:48;;;;;;;87.03;66.07;;;7.40;99.90;;;;;;5072026;28;20113;-76
2021/01/30 03:21:16;;;;;;;87.28;64.82;;;7.40;99.90;;;;;;5061784;28;20025;-78
2021/01/30 03:23:45;;;;;;;82.10;57.10;;;7.40;99.90;;;;;;5069165;28;20498;-77
2021/01/30 03:26:17;;;;;;;74.90;53.72;;;7.30;99.90;;;;;;5069965;28;20028;-76
2021/01/30 03:28:43;;;;;;;74.13;53.03;;;7.30;99.90;;;;;;5072277;28;20035;-76
2021/01/30 03:31:09;;;;;;;60.90;49.42;;;7.50;99.90;;;;;;5068809;28;20096;-77
2021/01/30 03:33:35;;;;;;;68.63;51.70;;;7.50;99.90;;;;;;5061631;28;20031;-76
2021/01/30 03:36:02;;;;;;;72.25;52.78;;;7.50;99.90;;;;;;5070020;28;20028;-77
2021/01/30 03:38:28;;;;;;;72.55;55.55;;;7.50;99.90;;;;;;5073330;28;20099;-77
2021/01/30 03:40:54;;;;;;;76.32;54.17;;;7.50;99.90;;;;;;5064248;28;20052;-76
2021/01/30 03:43:20;;;;;;;74.82;55.63;;;7.60;99.90;;;;;;5066037;28;20052;-78
2021/01/30 03:45:45;;;;;;;77.13;57.05;;;7.70;99.90;;;;;;5072118;28;20036;-75
2021/01/30 03:48:11;;;;;;;75.88;54.20;;;7.60;99.90;;;;;;5062648;28;20035;-78
2021/01/30 03:50:37;;;;;;;71.82;54.35;;;7.60;99.90;;;;;;5070519;28;20402;-76
2021/01/30 03:53:05;;;;;;;83.40;58.92;;;7.60;99.90;;;;;;5066085;28;20029;-77
2021/01/30 03:55:31;;;;;;;85.47;63.40;;;7.60;99.90;;;;;;5070588;28;20024;-76
2021/01/30 03:57:57;;;;;;;93.22;63.85;;;7.60;99.90;;;;;;5060248;28;20071;-75
2021/01/30 04:00:24;;;;;;;85.60;63.72;;;7.50;99.90;;;;;;5066148;28;20475;-79
2021/01/30 04:02:50;;;;;;;81.00;63.40;;;7.40;99.90;;;;;;5064692;28;20069;-75
2021/01/30 04:05:25;;;;;;;82.15;63.58;;;7.20;99.90;;;;;;5066117;28;20024;-76
2021/01/30 04:07:53;;;;;;;79.00;59.83;;;7.10;99.90;;;;;;5057498;28;20029;-77
2021/01/30 04:10:28;;;;;;;67.35;56.60;;;7.00;99.90;;;;;;5063356;28;20021;-76
2021/01/30 04:12:54;;;;;;;74.80;56.95;;;6.90;99.90;;;;;;5062691;28;20036;-76
2021/01/30 04:15:27;;;;;;;71.30;55.40;;;6.90;99.90;;;;;;5079262;28;20020;-75
2021/01/30 04:17:53;;;;;;;73.03;53.70;;;6.80;99.90;;;;;;5061177;28;20040;-78
2021/01/30 04:20:23;;;;;;;69.68;53.30;;;6.80;99.90;;;;;;5067800;28;20502;-76
2021/01/30 04:22:49;;;;;;;74.07;53.22;;;6.70;99.90;;;;;;5056595;28;20037;-75
2021/01/30 04:25:17;;;;;;;69.28;53.67;;;6.50;99.90;;;;;;5067968;28;20021;-76
2021/01/30 04:27:43;;;;;;;69.20;54.38;;;6.50;99.90;;;;;;5064322;28;20023;-76
2021/01/30 04:30:12;;;;;;;62.90;49.47;;;6.40;99.90;;;;;;5062054;28;20104;-77
2021/01/30 04:32:38;;;;;;;60.00;45.60;;;6.30;99.90;;;;;;5070708;28;20060;-77
2021/01/30 04:35:05;;;;;;;57.50;43.83;;;6.30;99.90;;;;;;5060511;28;20091;-77
2021/01/30 04:37:31;;;;;;;49.70;37.83;;;6.40;99.90;;;;;;5062596;28;20493;-76
2021/01/30 04:39:57;;;;;;;49.30;35.42;;;6.40;99.90;;;;;;5063473;28;20029;-77
2021/01/30 04:42:33;;;;;;;42.50;35.10;;;6.50;99.90;;;;;;5063523;28;20028;-77
2021/01/30 04:45:03;;;;;;;43.67;33.33;;;6.50;99.90;;;;;;5069427;28;20043;-76
2021/01/30 04:47:51;;;;;;;47.10;37.33;;;6.40;99.90;;;;;;5065359;28;20021;-76
2021/01/30 04:50:22;;;;;;;42.80;35.78;;;6.50;99.90;;;;;;5062899;28;20079;-75
2021/01/30 04:52:58;;;;;;;47.53;33.88;;;6.60;99.90;;;;;;5066166;28;20033;-76
2021/01/30 04:55:42;;;;;;;44.80;33.00;;;6.60;99.90;;;;;;5066476;28;20034;-75
2021/01/30 04:58:16;;;;;;;55.45;37.30;;;6.70;99.90;;;;;;5064421;28;20028;-76
2021/01/30 05:00:57;;;;;;;53.67;38.80;;;6.70;99.90;;;;;;5062617;28;20040;-76
2021/01/30 05:03:32;;;;;;;49.42;37.45;;;6.60;99.90;;;;;;5057108;28;20024;-76
2021/01/30 05:06:03;;;;;;;54.00;40.80;;;6.60;99.90;;;;;;5064336;28;20013;-76
2021/01/30 05:08:39;;;;;;;65.32;41.42;;;6.60;99.90;;;;;;5072180;28;20039;-76
2021/01/30 05:11:12;;;;;;;67.35;46.00;;;6.70;99.90;;;;;;5068913;28;20486;-76
2021/01/30 05:13:52;;;;;;;75.63;49.03;;;6.70;99.90;;;;;;5062945;28;20025;-76
2021/01/30 05:16:25;;;;;;;86.13;57.80;;;6.90;99.90;;;;;;5059122;28;20028;-77
2021/01/30 05:18:57;;;;;;;85.22;53.40;;;6.80;99.90;;;;;;5066766;28;20040;-76
2021/01/30 05:21:40;;;;;;;79.80;53.78;;;6.80;99.90;;;;;;5062182;28;20024;-76
2021/01/30 05:24:09;;;;;;;89.53;56.42;;;6.80;99.90;;;;;;5062038;28;20024;-76
2021/01/30 05:26:38;;;;;;;96.72;65.80;;;6.80;99.90;;;;;;5063218;28;20039;-76
2021/01/30 05:29:12;;;;;;;198.70;112.75;;;6.80;99.90;;;;;;5068374;28;20017;-76
2021/01/30 05:31:53;;;;;;;205.63;116.55;;;6.80;99.90;;;;;;5062825;28;20391;-77
2021/01/30 05:34:22;;;;;;;188.98;103.85;;;6.80;99.90;;;;;;5063947;28;20025;-76
2021/01/30 05:37:02;;;;;;;134.57;73.78;;;6.70;99.90;;;;;;5063255;28;20542;-76
2021/01/30 05:39:50;;;;;;;124.80;66.68;;;6.40;99.90;;;;;;5065346;28;20532;-76
2021/01/30 05:42:24;;;;;;;92.72;56.92;;;6.40;99.90;;;;;;5065267;28;20391;-76
2021/01/30 05:45:28;;;;;;;79.47;47.67;;;6.50;99.90;;;;;;5061100;28;20036;-76
2021/01/30 05:47:55;;;;;;;73.20;47.58;;;6.40;99.90;;;;;;5062658;28;20365;-76
2021/01/30 05:50:43;;;;;;;70.97;47.67;;;6.30;99.90;;;;;;5069860;28;20486;-76
2021/01/30 05:53:13;;;;;;;80.50;48.28;;;6.30;99.90;;;;;;5061476;28;20053;-76
2021/01/30 05:55:39;;;;;;;76.22;49.72;;;6.40;99.90;;;;;;5056654;28;20033;-75
2021/01/30 05:58:17;;;;;;;62.28;44.33;;;6.40;99.90;;;;;;5067086;28;20482;-76
2021/01/30 06:00:43;;;;;;;68.43;47.17;;;6.50;99.90;;;;;;5058818;28;20469;-77
2021/01/30 06:03:21;;;;;;;71.85;47.67;;;6.60;99.90;;;;;;5062204;28;20107;-75
2021/01/30 06:05:53;;;;;;;64.75;43.40;;;6.50;99.90;;;;;;5060479;28;20033;-76
2021/01/30 06:08:23;;;;;;;67.50;43.70;;;6.60;99.90;;;;;;5070502;28;20547;-77
2021/01/30 06:11:11;;;;;;;62.08;43.35;;;6.50;99.90;;;;;;5067417;28;20064;-76
2021/01/30 06:13:57;;;;;;;59.65;43.30;;;6.50;99.90;;;;;;5061084;28;20051;-76
2021/01/30 06:16:43;;;;;;;56.33;40.78;;;6.60;99.90;;;;;;5063294;28;20025;-76
2021/01/30 06:19:21;;;;;;;54.30;41.20;;;6.70;99.90;;;;;;5059180;28;20030;-76
2021/01/30 06:22:06;;;;;;;54.90;40.17;;;6.80;99.90;;;;;;5064919;28;20487;-76
2021/01/30 06:24:34;;;;;;;51.58;39.33;;;6.70;99.90;;;;;;5063924;28;20056;-77
2021/01/30 06:27:09;;;;;;;64.72;38.58;;;6.70;99.90;;;;;;5064767;28;20429;-75
2021/01/30 06:29:43;;;;;;;53.05;39.33;;;6.70;99.90;;;;;;5059621;28;20430;-75
2021/01/30 06:32:12;;;;;;;67.25;40.65;;;6.60;99.90;;;;;;5064856;28;20085;-75
2021/01/30 06:34:38;;;;;;;55.00;38.00;;;6.60;99.90;;;;;;5059090;28;20490;-77
2021/01/30 06:37:11;;;;;;;50.28;37.22;;;6.50;99.90;;;;;;5057645;28;20029;-75
2021/01/30 06:39:43;;;;;;;51.38;38.80;;;6.50;99.90;;;;;;5058462;28;20379;-76
2021/01/30 06:42:30;;;;;;;50.65;37.78;;;6.50;99.90;;;;;;5065503;28;20025;-77
2021/01/30 06:45:37;;;;;;;54.20;38.55;;;6.50;99.90;;;;;;5062686;28;20029;-77
2021/01/30 06:48:08;;;;;;;54.83;40.75;;;6.40;99.90;;;;;;5068166;28;20029;-76
2021/01/30 06:50:41;;;;;;;55.43;39.27;;;6.40;99.90;;;;;;5070213;28;20074;-76
2021/01/30 06:53:23;;;;;;;59.72;41.33;;;6.50;99.90;;;;;;5067465;28;20032;-76
2021/01/30 06:55:49;;;;;;;52.88;39.22;;;6.50;99.90;;;;;;5062610;28;20033;-76
2021/01/30 06:58:37;;;;;;;54.35;40.28;;;6.60;99.90;;;;;;5066000;28;20040;-76
2021/01/30 07:01:16;;;;;;;55.10;39.90;;;6.80;99.90;;;;;;5071063;28;20029;-76
2021/01/30 07:04:13;;;;;;;52.63;38.72;;;6.90;99.90;;;;;;5055824;28;20025;-77
2021/01/30 07:07:01;;;;;;;49.97;37.03;;;6.90;99.90;;;;;;5069206;28;20021;-76
2021/01/30 07:09:41;;;;;;;51.15;37.95;;;6.90;99.90;;;;;;5075429;28;20035;-77
2021/01/30 07:12:18;;;;;;;45.58;36.83;;;6.90;99.90;;;;;;5066496;28;20107;-76
2021/01/30 07:15:14;;;;;;;46.53;36.90;;;7.00;99.90;;;;;;5069012;28;20127;-75
2021/01/30 07:17:43;;;;;;;44.92;35.70;;;6.80;99.90;;;;;;5058057;28;20037;-77
2021/01/30 07:20:30;;;;;;;44.30;36.20;;;6.90;99.90;;;;;;5072554;28;20029;-77
2021/01/30 07:23:13;;;;;;;46.95;39.10;;;6.80;99.90;;;;;;5071119;28;20035;-76
2021/01/30 07:26:10;;;;;;;45.67;34.20;;;6.90;99.90;;;;;;5066276;28;20055;-77
2021/01/30 07:28:52;;;;;;;42.08;34.17;;;6.80;99.90;;;;;;5062275;28;20021;-76
2021/01/30 07:31:28;;;;;;;49.40;38.08;;;6.80;99.90;;;;;;5070458;28;20044;-76
2021/01/30 07:34:06;;;;;;;43.95;34.17;;;6.80;99.90;;;;;;5072644;28;20020;-75
2021/01/30 07:36:38;;;;;;;47.25;37.58;;;6.80;99.90;;;;;;5066307;28;20040;-76
2021/01/30 07:39:25;;;;;;;46.42;36.90;;;6.80;99.90;;;;;;5066319;28;20024;-76
2021/01/30 07:42:03;;;;;;;45.15;36.92;;;7.10;99.90;;;;;;5068997;28;20479;-75
2021/01/30 07:44:32;;;;;;;48.50;35.95;;;7.30;99.90;;;;;;5070086;28;20056;-75
2021/01/30 07:47:19;;;;;;;54.40;36.50;;;7.40;99.90;;;;;;5069436;28;20021;-77
2021/01/30 07:49:54;;;;;;;47.70;36.60;;;7.50;99.90;;;;;;5070173;28;20090;-76
2021/01/30 07:52:28;;;;;;;48.70;38.88;;;7.60;99.90;;;;;;5064075;28;20051;-77
2021/01/30 07:54:56;;;;;;;48.67;35.97;;;7.60;99.90;;;;;;5070219;28;20048;-77
2021/01/30 07:57:40;;;;;;;46.65;36.55;;;7.60;99.90;;;;;;5064182;28;20103;-72
2021/01/30 08:00:20;;;;;;;42.67;33.90;;;7.60;99.90;;;;;;5067838;28;20544;-73
2021/01/30 08:03:13;;;;;;;41.08;35.35;;;7.50;99.90;;;;;;5080725;28;20035;-73
2021/01/30 08:06:17;;;;;;;47.65;38.05;;;7.40;99.90;;;;;;5063775;28;20118;-73
2021/01/30 08:08:58;;;;;;;52.55;37.85;;;7.40;99.90;;;;;;5062335;28;20045;-74
2021/01/30 08:11:31;;;;;;;43.58;35.90;;;7.40;99.90;;;;;;5069977;28;20020;-73
2021/01/30 08:14:23;;;;;;;48.22;40.53;;;7.40;99.90;;;;;;5070055;28;20020;-74
2021/01/30 08:16:56;;;;;;;;;;;7.40;99.90;;;;;;5062591;28;20020;-73
2021/01/30 08:20:11;;;;;;;44.63;36.63;;;7.50;99.90;;;;;;5060878;28;19912;-74
2021/01/30 08:22:42;;;;;;;46.90;38.05;;;7.80;99.90;;;;;;5058670;28;20044;-74
2021/01/30 08:25:22;;;;;;;45.83;36.67;;;7.90;99.90;;;;;;5066691;28;20045;-73
2021/01/30 08:27:57;;;;;;;46.75;38.50;;;7.90;99.90;;;;;;5077780;28;20036;-73
2021/01/30 08:30:24;;;;;;;42.85;33.28;;;7.80;99.90;;;;;;5076250;28;20099;-74
2021/01/30 08:33:09;;;;;;;57.30;31.38;;;7.80;99.90;;;;;;5079492;28;20029;-73
2021/01/30 08:35:42;;;;;;;40.47;32.85;;;8.00;99.90;;;;;;5075921;28;20029;-73
2021/01/30 08:38:16;;;;;;;45.33;34.80;;;8.10;99.90;;;;;;5068100;28;20624;-73
2021/01/30 08:40:51;;;;;;;44.67;36.40;;;8.30;99.90;;;;;;5066649;28;20159;-73
2021/01/30 08:43:46;;;;;;;47.05;37.47;;;8.40;99.90;;;;;;5065225;28;20073;-73
2021/01/30 08:46:38;;;;;;;252.85;46.38;;;8.50;99.90;;;;;;5067135;28;20029;-72
2021/01/30 08:49:16;;;;;;;41.40;34.50;;;8.50;99.90;;;;;;5067195;28;20017;-74
2021/01/30 08:51:43;;;;;;;47.00;35.25;;;8.80;99.90;;;;;;5068368;28;20028;-74
2021/01/30 08:54:42;;;;;;;42.75;33.08;;;8.90;99.90;;;;;;5070468;28;20081;-73
2021/01/30 08:57:30;;;;;;;53.95;36.58;;;9.00;99.90;;;;;;5057314;28;20063;-74
2021/01/30 08:59:56;;;;;;;49.90;40.63;;;9.00;99.90;;;;;;5074068;28;20024;-74
2021/01/30 09:02:29;;;;;;;49.85;40.33;;;9.00;99.90;;;;;;5077109;28;20020;-73
2021/01/30 09:05:33;;;;;;;48.20;39.35;;;8.90;99.90;;;;;;5082165;28;20020;-74
2021/01/30 09:08:20;;;;;;;48.47;40.33;;;9.00;99.90;;;;;;5070705;28;20029;-74
2021/01/30 09:10:46;;;;;;;46.63;40.10;;;9.30;99.90;;;;;;5075370;28;20024;-75
2021/01/30 09:13:17;;;;;;;57.35;42.20;;;9.30;99.90;;;;;;5063589;28;20025;-74
2021/01/30 09:15:42;;;;;;;49.35;40.60;;;9.30;99.90;;;;;;5067531;28;20036;-73
2021/01/30 09:18:34;;;;;;;47.13;40.30;;;9.50;99.90;;;;;;5062084;28;20089;-74
2021/01/30 09:21:24;;;;;;;49.97;39.80;;;9.50;99.90;;;;;;5068511;28;20048;-74
2021/01/30 09:24:12;;;;;;;52.25;41.17;;;9.40;99.90;;;;;;5065022;28;20032;-74
2021/01/30 09:27:03;;;;;;;54.85;44.00;;;9.60;99.90;;;;;;5066965;28;20382;-75
2021/01/30 09:29:44;;;;;;;50.93;42.07;;;9.90;99.90;;;;;;5061734;28;20155;-72
2021/01/30 09:32:13;;;;;;;54.83;44.33;;;10.20;99.90;;;;;;5061465;28;20037;-74
2021/01/30 09:35:03;;;;;;;52.22;43.42;;;9.90;99.90;;;;;;5068498;28;20020;-74
2021/01/30 09:37:36;;;;;;;55.58;46.13;;;9.90;99.90;;;;;;5058952;28;20032;-76
2021/01/30 09:40:07;;;;;;;56.08;47.22;;;9.80;99.90;;;;;;5061164;28;20120;-75
2021/01/30 09:42:32;;;;;;;51.90;44.50;;;9.80;99.90;;;;;;5066502;28;20054;-74
2021/01/30 09:45:11;;;;;;;64.18;50.75;;;9.80;99.90;;;;;;5068962;28;20017;-78
2021/01/30 09:47:42;;;;;;;61.65;46.00;;;9.80;99.90;;;;;;5065492;28;20021;-73
2021/01/30 09:50:12;;;;;;;58.22;44.75;;;9.80;99.90;;;;;;5069704;28;20032;-74
2021/01/30 09:52:51;;;;;;;58.03;46.00;;;9.80;99.90;;;;;;5061665;28;20041;-73
2021/01/30 09:55:20;;;;;;;60.72;47.92;;;9.80;99.90;;;;;;5063326;28;20038;-74
2021/01/30 09:57:47;;;;;;;68.25;47.45;;;9.80;99.90;;;;;;5061782;28;20344;-78
2021/01/30 10:00:17;;;;;;;57.55;46.58;;;9.80;99.90;;;;;;5062335;28;20012;-75
2021/01/30 10:02:43;;;;;;;56.72;45.58;;;9.60;99.90;;;;;;5066282;28;20637;-73
2021/01/30 10:05:12;;;;;;;54.80;42.05;;;9.60;99.90;;;;;;5069268;28;20091;-75
2021/01/30 10:07:39;;;;;;;55.65;43.72;;;9.50;99.90;;;;;;5056432;28;20494;-74
2021/01/30 10:10:26;;;;;;;53.40;42.85;;;9.40;99.90;;;;;;5060180;28;20079;-73
2021/01/30 10:12:53;;;;;;;57.85;44.92;;;9.50;99.90;;;;;;5065600;28;20028;-75
2021/01/30 10:15:26;;;;;;;49.45;43.10;;;9.50;99.90;;;;;;5061924;28;20073;-74
2021/01/30 10:17:53;;;;;;;49.25;42.83;;;9.60;99.90;;;;;;5063071;28;20025;-75
2021/01/30 10:20:19;;;;;;;51.53;42.15;;;9.60;99.90;;;;;;5067937;28;20479;-76
2021/01/30 10:22:48;;;;;;;52.35;41.65;;;9.80;99.90;;;;;;5066790;28;20039;-75
2021/01/30 10:25:22;;;;;;;53.10;39.53;;;9.90;99.90;;;;;;5062713;28;20471;-76
2021/01/30 10:27:48;;;;;;;41.95;36.97;;;10.00;99.90;;;;;;5067965;28;20035;-74
2021/01/30 10:30:17;;;;;;;48.03;38.63;;;10.20;99.90;;;;;;5056948;28;20073;-75
2021/01/30 10:32:53;;;;;;;55.75;38.97;;;10.30;99.90;;;;;;5065769;28;20024;-73
2021/01/30 10:35:28;;;;;;;52.80;38.97;;;10.40;99.90;;;;;;5068907;28;20550;-75
2021/01/30 10:38:06;;;;;;;51.08;42.80;;;10.60;99.90;;;;;;5061203;28;20020;-76
2021/01/30 10:40:35;;;;;;;51.85;41.97;;;10.70;99.90;;;;;;5067625;28;20017;-75
2021/01/30 10:43:38;;;;;;;52.83;40.70;;;10.80;99.90;;;;;;5061737;28;20039;-75
2021/01/30 10:46:22;;;;;;;50.75;41.38;;;10.60;99.90;;;;;;5063216;28;20478;-75
2021/01/30 10:48:49;;;;;;;48.25;41.13;;;10.50;99.90;;;;;;5060958;28;20494;-75
2021/01/30 10:51:22;;;;;;;66.03;38.95;;;10.30;99.90;;;;;;5061407;28;20025;-74
2021/01/30 10:53:49;;;;;;;44.53;38.90;;;10.30;99.90;;;;;;5059773;28;20033;-75
2021/01/30 10:56:24;;;;;;;50.67;37.90;;;10.00;99.90;;;;;;5061625;28;20063;-74
2021/01/30 10:58:55;;;;;;;41.85;35.97;;;9.90;99.90;;;;;;5066012;28;20484;-74
2021/01/30 11:01:20;;;;;;;48.53;36.00;;;9.80;99.90;;;;;;5069354;28;20039;-78
2021/01/30 11:03:52;;;;;;;44.47;36.38;;;9.70;99.90;;;;;;5062861;28;20032;-75
2021/01/30 11:06:32;;;;;;;48.22;36.50;;;9.70;99.90;;;;;;5058866;28;20048;-78
2021/01/30 11:09:11;;;;;;;44.10;37.08;;;9.50;99.90;;;;;;5061788;28;20028;-74
2021/01/30 11:11:40;;;;;;;44.80;37.15;;;9.50;99.90;;;;;;5072580;28;20050;-75
2021/01/30 11:14:31;;;;;;;44.08;35.63;;;9.50;99.90;;;;;;5071054;28;20021;-76
2021/01/30 11:16:59;;;;;;;43.67;36.42;;;9.60;99.90;;;;;;5058693;28;20108;-76
2021/01/30 11:19:31;;;;;;;50.17;39.17;;;9.90;99.90;;;;;;5068444;28;20074;-75
2021/01/30 11:22:17;;;;;;;49.88;41.42;;;10.00;99.90;;;;;;5065197;28;20028;-74
2021/01/30 11:24:48;;;;;;;49.90;38.78;;;10.00;99.90;;;;;;5066043;28;20025;-75
2021/01/30 11:27:38;;;;;;;53.00;37.78;;;10.00;99.90;;;;;;5059391;28;20016;-75
2021/01/30 11:30:14;;;;;;;46.03;38.05;;;10.10;99.90;;;;;;5059180;28;20028;-75
2021/01/30 11:32:41;;;;;;;48.40;35.92;;;10.10;99.90;;;;;;5067261;28;20090;-75
2021/01/30 11:35:07;;;;;;;46.25;39.03;;;10.30;99.90;;;;;;5063380;28;20017;-76
2021/01/30 11:37:33;;;;;;;44.38;37.33;;;10.50;99.90;;;;;;5065124;28;20020;-75
2021/01/30 11:40:08;;;;;;;46.28;40.35;;;10.70;99.90;;;;;;5072244;28;20090;-75
2021/01/30 11:42:34;;;;;;;54.95;39.15;;;10.70;99.90;;;;;;5072002;28;20092;-75
2021/01/30 11:45:00;;;;;;;43.80;37.25;;;10.50;99.90;;;;;;5072153;28;20028;-75
2021/01/30 11:47:26;;;;;;;42.42;37.38;;;10.30;99.90;;;;;;5068401;28;20021;-76
2021/01/30 11:49:52;;;;;;;42.75;34.47;;;10.10;99.90;;;;;;5071337;28;20105;-75
2021/01/30 11:52:18;;;;;;;45.25;36.53;;;10.00;99.90;;;;;;5066562;28;20104;-76
2021/01/30 11:54:45;;;;;;;39.78;33.70;;;9.80;99.90;;;;;;5071115;28;20533;-76
2021/01/30 11:57:11;;;;;;;36.58;32.13;;;9.80;99.90;;;;;;5063285;28;20032;-74
2021/01/30 11:59:36;;;;;;;38.85;32.20;;;9.70;99.90;;;;;;5066659;28;20048;-75
2021/01/30 12:02:02;;;;;;;40.67;36.13;;;9.70;99.90;;;;;;5075171;28;20031;-78
2021/01/30 12:04:28;;;;;;;34.08;29.58;;;9.70;99.90;;;;;;5077889;28;20430;-74
2021/01/30 12:06:54;;;;;;;38.53;31.83;;;9.60;99.90;;;;;;5062998;28;20040;-75
2021/01/30 12:09:19;;;;;;;39.33;33.35;;;9.50;99.90;;;;;;5067005;28;20413;-74
2021/01/30 12:11:45;;;;;;;48.92;37.67;;;9.40;99.90;;;;;;5066332;28;20028;-74
2021/01/30 12:14:11;;;;;;;42.38;36.15;;;9.20;99.90;;;;;;5066355;28;20032;-74
2021/01/30 12:16:37;;;;;;;40.15;33.35;;;9.10;99.90;;;;;;5069667;28;20036;-74
2021/01/30 12:19:03;;;;;;;54.65;41.13;;;9.10;99.90;;;;;;5064918;28;20024;-75
2021/01/30 12:21:29;;;;;;;48.13;36.13;;;9.20;99.90;;;;;;5068666;28;20427;-74
2021/01/30 12:23:55;;;;;;;41.45;34.50;;;9.10;99.90;;;;;;5065140;28;20100;-74
2021/01/30 12:26:23;;;;;;;45.72;37.40;;;9.10;99.90;;;;;;5061682;28;20024;-73
2021/01/30 12:28:50;;;;;;;43.67;36.33;;;9.10;99.90;;;;;;5062514;28;20081;-74
2021/01/30 12:31:16;;;;;;;47.20;39.35;;;9.00;99.90;;;;;;5063754;28;20123;-74
2021/01/30 12:33:42;;;;;;;41.65;32.38;;;9.10;99.90;;;;;;5062414;28;20635;-74
2021/01/30 12:36:09;;;;;;;42.90;34.90;;;9.00;99.90;;;;;;5068851;28;20029;-75
2021/01/30 12:38:35;;;;;;;39.30;32.83;;;8.80;99.90;;;;;;5064168;28;20029;-75
2021/01/30 12:41:01;;;;;;;40.78;34.28;;;8.80;99.90;;;;;;5068454;28;20115;-75
2021/01/30 12:43:28;;;;;;;38.55;32.20;;;8.90;99.90;;;;;;5064802;28;20123;-75
2021/01/30 12:45:53;;;;;;;40.15;33.45;;;8.90;99.90;;;;;;5063149;28;20020;-75
2021/01/30 12:48:20;;;;;;;36.47;31.98;;;9.00;99.90;;;;;;5066767;28;20544;-76
2021/01/30 12:50:46;;;;;;;44.85;33.28;;;9.10;99.90;;;;;;5064268;28;20487;-76
2021/01/30 12:53:12;;;;;;;42.33;34.97;;;9.10;99.90;;;;;;5063885;28;20502;-76
2021/01/30 12:55:41;;;;;;;39.08;34.58;;;9.10;99.90;;;;;;5068022;28;20052;-75
2021/01/30 12:58:22;;;;;;;42.13;35.58;;;9.30;99.90;;;;;;5061441;28;20082;-75
2021/01/30 13:00:50;;;;;;;45.63;38.47;;;9.30;99.90;;;;;;5060264;28;20091;-76
2021/01/30 13:03:17;;;;;;;46.40;36.70;;;9.20;99.90;;;;;;5071547;28;20063;-76
2021/01/30 13:05:44;;;;;;;47.72;39.67;;;9.20;99.90;;;;;;5060516;28;20029;-76
2021/01/30 13:08:10;;;;;;;43.63;34.22;;;9.20;99.90;;;;;;5064106;28;20375;-77
2021/01/30 13:10:36;;;;;;;45.85;41.08;;;9.10;99.90;;;;;;5064006;28;20025;-76